Time;durP1;ratioP1;P1;durP2;ratioP2;P2;SDS_P1;SDS_P2;PMS_P1;PMS_P2;Temp;Humidity;BMP_temperature;BMP_pressure;BME280_temperature;BME280_humidity;BME280_pressure;Samples;Min_cycle;Max_cycle;Signal;HPM_P1;HPM_P2
2022/04/16 00:03:13;;;;;;;13.40;10.80;;;;;;;9.99;88.85;103082.06;10299943;28;20077;-75
2022/04/16 00:08:14;;;;;;;11.50;10.25;;;;;;;9.96;89.23;103081.50;10299920;28;20043;-76
2022/04/16 00:13:15;;;;;;;14.77;10.85;;;;;;;9.96;88.78;103085.03;10298471;28;20111;-76
2022/04/16 00:18:16;;;;;;;16.15;12.48;;;;;;;10.01;88.00;103082.75;10282710;28;20023;-76
2022/04/16 00:23:19;;;;;;;15.73;13.25;;;;;;;10.00;88.63;103089.16;10299257;28;20034;-75
2022/04/16 00:28:20;;;;;;;15.73;12.25;;;;;;;9.97;88.03;103097.56;10297612;28;20026;-76
2022/04/16 00:33:20;;;;;;;14.30;10.95;;;;;;;9.93;88.41;103092.59;10297683;28;20475;-75
2022/04/16 00:38:21;;;;;;;18.95;11.85;;;;;;;9.85;88.47;103101.38;10299966;28;20039;-76
2022/04/16 00:43:23;;;;;;;14.70;11.98;;;;;;;9.91;88.16;103098.13;10302117;28;20034;-76
2022/04/16 00:48:23;;;;;;;14.45;12.73;;;;;;;9.78;88.49;103103.78;10297473;28;20034;-76
2022/04/16 00:53:30;;;;;;;19.17;14.45;;;;;;;9.86;89.27;103096.81;10297342;28;20404;-75
2022/04/16 00:58:30;;;;;;;16.98;13.57;;;;;;;9.85;88.67;103097.84;10297834;28;20035;-76
2022/04/16 01:03:30;;;;;;;15.05;10.02;;;;;;;9.75;87.65;103089.69;10297978;28;20043;-76
2022/04/16 01:08:32;;;;;;;17.38;11.60;;;;;;;9.67;88.07;103105.78;10297991;28;20047;-76
2022/04/16 01:13:33;;;;;;;18.52;12.25;;;;;;;9.65;87.96;103102.34;10296526;28;20047;-76
2022/04/16 01:18:33;;;;;;;16.98;11.90;;;;;;;9.57;88.02;103104.84;10279749;28;20474;-76
2022/04/16 01:23:34;;;;;;;12.93;11.63;;;;;;;9.48;89.20;103096.59;10295465;28;20122;-75
2022/04/16 01:28:34;;;;;;;15.48;12.57;;;;;;;9.46;89.83;103089.59;10297997;28;20054;-76
2022/04/16 01:33:35;;;;;;;12.98;11.75;;;;;;;9.48;89.36;103088.47;10279603;28;20490;-75
2022/04/16 01:38:35;;;;;;;15.18;12.65;;;;;;;9.36;89.19;103084.16;10297390;28;20034;-76
2022/04/16 01:43:36;;;;;;;15.30;13.70;;;;;;;9.20;89.08;103083.81;10295959;28;20043;-76
2022/04/16 01:48:36;;;;;;;14.45;10.90;;;;;;;8.98;90.57;103095.63;10295058;28;20074;-76
2022/04/16 01:53:37;;;;;;;14.02;12.73;;;;;;;8.81;90.42;103091.69;10295867;28;20034;-75
2022/04/16 01:58:38;;;;;;;14.43;12.00;;;;;;;8.64;91.45;103089.56;10296340;28;20457;-75
2022/04/16 02:03:38;;;;;;;13.20;11.70;;;;;;;8.49;92.50;103097.16;10297104;28;20364;-77
2022/04/16 02:08:39;;;;;;;19.88;15.90;;;;;;;8.41;92.82;103100.47;10296491;28;20038;-76
2022/04/16 02:13:39;;;;;;;18.02;14.70;;;;;;;8.30;93.95;103104.06;10297765;28;20035;-75
2022/04/16 02:18:40;;;;;;;12.75;11.43;;;;;;;8.24;94.34;103104.56;10296446;28;20042;-76
2022/04/16 02:23:41;;;;;;;22.05;14.30;;;;;;;8.16;94.27;103113.28;10296731;28;20081;-76
2022/04/16 02:28:41;;;;;;;12.52;10.95;;;;;;;8.14;94.38;103120.66;10294677;28;20491;-76
2022/04/16 02:33:41;;;;;;;14.50;12.27;;;;;;;8.01;95.64;103129.88;10295210;28;20383;-76
2022/04/16 02:38:42;;;;;;;21.05;14.45;;;;;;;7.95;95.96;103131.28;10292890;28;20106;-75
2022/04/16 02:43:42;;;;;;;15.27;12.73;;;;;;;7.86;96.35;103124.78;10293153;28;20165;-76
2022/04/16 02:48:42;;;;;;;18.65;13.88;;;;;;;7.78;97.28;103137.16;10294155;28;20042;-75
2022/04/16 02:53:43;;;;;;;16.05;13.98;;;;;;;7.77;96.92;103139.00;10295309;28;20121;-74
2022/04/16 02:58:44;;;;;;;14.68;13.13;;;;;;;7.75;96.07;103156.28;10294329;28;20034;-75
2022/04/16 03:03:44;;;;;;;18.20;13.80;;;;;;;7.67;96.08;103160.47;10294456;28;20042;-76
2022/04/16 03:08:44;;;;;;;23.42;14.15;;;;;;;7.58;97.21;103153.09;10298825;28;20038;-76
2022/04/16 03:13:45;;;;;;;19.23;14.35;;;;;;;7.50;98.45;103147.50;10301921;28;20451;-75
2022/04/16 03:18:46;;;;;;;15.52;13.77;;;;;;;7.51;97.84;103148.34;10301661;28;20130;-76
2022/04/16 03:23:47;;;;;;;17.08;13.73;;;;;;;7.50;95.36;103152.88;10301458;28;20050;-76
2022/04/16 03:28:48;;;;;;;15.30;13.32;;;;;;;7.40;93.00;103144.66;10301498;28;20478;-76
2022/04/16 03:33:49;;;;;;;21.88;14.15;;;;;;;7.26;91.75;103149.41;10301083;28;20031;-76
2022/04/16 03:38:49;;;;;;;27.95;15.95;;;;;;;7.15;93.35;103153.81;10300288;28;20043;-76
2022/04/16 03:43:49;;;;;;;21.00;15.38;;;;;;;7.11;94.44;103152.31;10300073;28;20050;-76
2022/04/16 03:48:50;;;;;;;19.88;16.42;;;;;;;7.05;94.70;103147.44;10299411;28;20411;-76
2022/04/16 03:53:50;;;;;;;21.42;15.65;;;;;;;6.96;95.82;103158.91;10300832;28;20042;-76
2022/04/16 04:04:10;;;;;;;23.40;18.75;;;;;;;6.71;99.98;103174.25;10299542;28;20574;-76
2022/04/16 04:09:11;;;;;;;23.67;16.88;;;;;;;6.67;100.00;103177.31;10300416;28;20098;-76
2022/04/16 04:14:11;;;;;;;18.73;16.75;;;;;;;6.63;100.00;103179.34;10282079;28;20442;-75
2022/04/16 04:19:12;;;;;;;21.27;18.98;;;;;;;6.57;99.27;103179.81;10298789;28;20034;-75
2022/04/16 04:24:12;;;;;;;25.10;20.10;;;;;;;6.51;98.54;103180.28;10297941;28;20190;-75
2022/04/16 04:29:12;;;;;;;24.25;18.65;;;;;;;6.41;100.00;103190.84;10298953;28;20069;-75
2022/04/16 04:34:13;;;;;;;24.50;18.15;;;;;;;6.41;100.00;103193.56;10300530;28;20152;-76
2022/04/16 04:39:13;;;;;;;26.42;20.23;;;;;;;6.39;100.00;103198.22;10298531;28;20031;-76
2022/04/16 04:44:14;;;;;;;26.88;20.27;;;;;;;6.39;100.00;103198.22;10281560;28;20039;-76
2022/04/16 04:49:14;;;;;;;23.48;18.85;;;;;;;6.37;100.00;103199.28;10296832;28;20479;-75
2022/04/16 04:54:14;;;;;;;33.03;18.40;;;;;;;6.36;100.00;103198.44;10296853;28;20067;-76
2022/04/16 04:59:15;;;;;;;26.95;21.70;;;;;;;6.36;100.00;103202.97;10297334;28;20089;-76
2022/04/16 05:04:15;;;;;;;26.00;20.05;;;;;;;6.40;100.00;103209.81;10279838;28;20035;-75
2022/04/16 05:09:16;;;;;;;30.17;21.95;;;;;;;6.44;100.00;103211.31;10296331;28;20046;-75
2022/04/16 05:14:16;;;;;;;32.63;19.17;;;;;;;6.47;100.00;103224.53;10295845;28;20035;-76
2022/04/16 05:19:16;;;;;;;30.90;21.05;;;;;;;6.49;100.00;103228.00;10296542;28;20154;-77
2022/04/16 05:24:17;;;;;;;25.02;20.95;;;;;;;6.50;100.00;103237.78;10279537;28;20034;-76
2022/04/16 05:29:17;;;;;;;30.35;19.98;;;;;;;6.63;100.00;103238.56;10295134;28;20499;-76
2022/04/16 05:34:20;;;;;;;30.98;20.77;;;;;;;6.71;100.00;103241.56;10295087;28;20074;-76
2022/04/16 05:39:21;;;;;;;34.47;21.15;;;;;;;6.83;100.00;103244.31;10294948;28;20035;-75
2022/04/16 05:44:23;;;;;;;27.73;20.48;;;;;;;6.93;100.00;103245.34;10294247;28;20113;-76
2022/04/16 05:49:23;;;;;;;26.33;19.30;;;;;;;7.08;100.00;103240.63;10295176;28;20053;-76
2022/04/16 05:54:23;;;;;;;27.20;20.52;;;;;;;8.58;100.00;103250.28;10295180;28;20367;-76
2022/04/16 05:59:24;;;;;;;24.00;17.52;;;;;;;9.63;100.00;103255.81;10294265;28;20048;-75
2022/04/16 06:04:24;;;;;;;23.65;16.38;;;;;;;10.10;96.96;103248.06;10296152;28;20031;-76
2022/04/16 06:09:25;;;;;;;22.23;15.52;;;;;;;10.32;91.23;103255.16;10296317;28;20138;-76
2022/04/16 06:14:25;;;;;;;22.17;17.95;;;;;;;10.38;89.34;103263.59;10293889;28;20475;-76
2022/04/16 06:19:25;;;;;;;20.75;16.17;;;;;;;10.93;87.51;103268.53;10295315;28;20085;-76
2022/04/16 06:24:26;;;;;;;23.70;16.27;;;;;;;11.28;84.40;103270.66;10276519;28;20031;-75
2022/04/16 06:29:27;;;;;;;20.20;15.43;;;;;;;11.53;83.03;103271.06;10294027;28;20061;-76
2022/04/16 06:34:28;;;;;;;19.73;14.57;;;;;;;11.77;81.45;103281.41;10294197;28;20037;-76
2022/04/16 06:39:28;;;;;;;19.05;14.75;;;;;;;11.97;80.21;103279.53;10278380;28;20042;-75
2022/04/16 06:44:29;;;;;;;18.88;15.43;;;;;;;12.12;79.47;103280.75;10292604;28;20039;-76
2022/04/16 06:49:29;;;;;;;24.48;16.08;;;;;;;12.36;77.68;103284.81;10293913;28;20035;-74
2022/04/16 06:54:30;;;;;;;19.10;15.27;;;;;;;12.68;76.55;103287.91;10294374;28;20047;-77
2022/04/16 06:59:30;;;;;;;26.27;18.15;;;;;;;12.88;76.09;103285.88;10295318;28;20034;-76
2022/04/16 07:04:31;;;;;;;21.02;15.20;;;;;;;13.16;75.50;103289.41;10291901;28;20062;-76
2022/04/16 07:09:38;;;;;;;15.10;12.40;;;;;;;13.35;74.15;103293.00;10293455;28;20034;-76
2022/04/16 07:14:38;;;;;;;21.05;15.70;;;;;;;13.45;73.77;103282.88;10294123;28;20094;-76
2022/04/16 07:19:39;;;;;;;24.35;17.35;;;;;;;13.82;73.29;103287.22;10295018;28;20043;-76
2022/04/16 07:24:42;;;;;;;21.95;17.10;;;;;;;14.28;72.32;103291.38;10292754;28;20439;-75
2022/04/16 07:29:42;;;;;;;26.00;16.50;;;;;;;14.01;72.08;103277.94;10293109;28;20047;-75
2022/04/16 07:34:43;;;;;;;17.88;13.38;;;;;;;14.38;71.37;103297.53;10293154;28;20502;-75
2022/04/16 07:39:43;;;;;;;18.00;12.60;;;;;;;13.88;72.11;103283.81;10294813;28;20101;-77
2022/04/16 07:44:43;;;;;;;25.45;17.38;;;;;;;14.17;72.43;103283.50;10292511;28;20031;-75
2022/04/16 07:49:44;;;;;;;21.83;17.02;;;;;;;14.23;72.14;103293.75;10229379;28;20499;-77
2022/04/16 07:54:44;;;;;;;17.02;15.25;;;;;;;14.57;70.99;103281.97;10305227;28;20065;-77
2022/04/16 07:59:45;;;;;;;17.02;14.32;;;;;;;13.09;76.13;103292.91;10362831;28;20065;-76
2022/04/16 08:04:45;;;;;;;20.70;16.50;;;;;;;14.55;73.23;103276.69;10379069;28;20085;-76
2022/04/16 08:09:46;;;;;;;25.17;16.98;;;;;;;15.22;69.69;103271.16;10379415;28;20429;-76
2022/04/16 08:14:46;;;;;;;22.05;14.35;;;;;;;15.58;67.90;103279.84;10380002;28;20093;-77
2022/04/16 08:19:47;;;;;;;17.27;14.52;;;;;;;15.84;66.33;103281.53;10378605;28;20030;-77
2022/04/16 08:30:10;;;;;;;22.48;15.88;;;;;;;15.97;66.22;103300.13;10364917;28;20046;-77
2022/04/16 08:35:12;;;;;;;19.75;15.27;;;;;;;16.16;65.41;103296.97;10380299;28;20097;-76
2022/04/16 08:40:13;;;;;;;18.02;14.65;;;;;;;16.37;64.04;103295.50;10379366;28;20038;-77
2022/04/16 08:45:13;;;;;;;22.10;14.52;;;;;;;16.40;63.98;103301.50;10361193;28;20038;-77
2022/04/16 08:50:13;;;;;;;19.50;14.05;;;;;;;16.82;62.81;103286.59;10378012;28;20041;-77
2022/04/16 08:55:14;;;;;;;17.63;13.93;;;;;;;17.26;61.98;103294.16;10377634;28;20038;-77
2022/04/16 09:00:15;;;;;;;15.57;10.65;;;;;;;16.34;62.67;103290.44;10378751;28;20034;-77
2022/04/16 09:05:17;;;;;;;16.70;15.00;;;;;;;16.57;63.17;103291.34;10379143;28;20080;-78
2022/04/16 09:10:17;;;;;;;16.13;12.93;;;;;;;17.32;59.54;103296.13;10344686;28;20034;-77
2022/04/16 09:15:18;;;;;;;20.20;14.68;;;;;;;16.85;61.96;103291.72;10361088;28;20033;-76
2022/04/16 09:20:19;;;;;;;22.42;13.77;;;;;;;17.16;60.93;103285.31;10376542;28;20382;-75
2022/04/16 09:25:19;;;;;;;20.98;15.30;;;;;;;17.17;59.96;103281.56;10376738;28;20102;-76
2022/04/16 09:30:23;;;;;;;18.10;14.20;;;;;;;17.76;59.85;103283.59;10377065;28;20060;-76
2022/04/16 09:35:28;;;;;;;16.20;12.43;;;;;;;18.20;56.26;103280.88;10376144;28;20369;-75
2022/04/16 09:40:32;;;;;;;12.82;11.13;;;;;;;18.39;54.91;103282.19;10377657;28;20040;-76
2022/04/16 09:45:33;;;;;;;15.63;13.95;;;;;;;18.48;55.32;103269.22;10358662;28;20056;-72
2022/04/16 09:50:33;;;;;;;16.40;12.20;;;;;;;19.10;52.55;103257.66;10358549;28;20050;-73
2022/04/16 09:55:34;;;;;;;15.43;11.75;;;;;;;18.68;52.79;103262.06;10359167;28;20026;-68
2022/04/16 10:00:35;;;;;;;18.92;13.77;;;;;;;18.77;53.32;103263.66;10360983;28;20042;-77
2022/04/16 10:05:35;;;;;;;14.30;12.80;;;;;;;18.99;52.76;103267.28;10342910;28;20418;-77
2022/04/16 10:10:51;;;;;;;14.38;11.43;;;;;;;19.20;50.91;103271.91;10359527;28;20026;-77
2022/04/16 10:16:01;;;;;;;16.13;10.52;;;;;;;19.61;49.80;103262.09;10375079;28;20033;-77
2022/04/16 10:21:02;;;;;;;12.10;10.82;;;;;;;19.48;48.42;103252.69;10374279;28;20081;-77
2022/04/16 10:26:15;;;;;;;16.00;11.23;;;;;;;19.73;49.05;103253.13;10375593;28;20101;-77
2022/04/16 10:31:23;;;;;;;13.90;11.95;;;;;;;20.02;48.83;103269.59;10356703;28;20482;-77
2022/04/16 10:36:28;;;;;;;11.73;10.05;;;;;;;20.24;45.83;103264.84;10375225;28;20042;-77
2022/04/16 10:41:29;;;;;;;14.07;10.77;;;;;;;20.68;44.65;103267.16;10357262;28;20481;-77
2022/04/16 10:46:46;;;;;;;11.93;10.13;;;;;;;20.70;44.71;103254.00;10357047;28;20166;-77
2022/04/16 10:51:46;;;;;;;14.50;9.80;;;;;;;20.19;44.79;103266.28;10374071;28;20458;-75
2022/04/16 10:56:54;;;;;;;10.90;8.43;;;;;;;20.18;43.75;103258.25;10358340;28;20034;-68
2022/04/16 11:01:54;;;;;;;7.97;7.18;;;;;;;20.59;41.79;103254.63;10357458;28;20359;-77
2022/04/16 11:06:57;;;;;;;10.70;8.40;;;;;;;20.99;41.74;103261.03;10375998;28;20026;-75
2022/04/16 11:11:57;;;;;;;7.05;6.22;;;;;;;20.04;43.06;103253.72;10356687;28;20390;-76
2022/04/16 11:17:01;;;;;;;7.10;6.27;;;;;;;18.86;46.04;103247.06;10380225;28;20034;-75
2022/04/16 11:22:02;;;;;;;6.97;6.22;;;;;;;19.38;43.84;103237.63;10383058;28;20306;-75
2022/04/16 11:37:40;;;;;;;14.30;8.70;;;;;;;19.08;46.84;103231.44;10370791;28;20124;-76
2022/04/16 11:42:41;;;;;;;9.18;8.25;;;;;;;19.32;46.87;103232.91;10380903;28;20030;-77
2022/04/16 11:47:41;;;;;;;8.48;7.63;;;;;;;19.61;45.34;103221.72;10350558;28;20458;-77
2022/04/16 11:52:41;;;;;;;7.80;6.97;;;;;;;19.76;44.03;103232.63;10382515;28;20069;-77
2022/04/16 11:57:46;;;;;;;9.93;6.50;;;;;;;19.64;44.17;103220.50;10347155;28;20034;-78
2022/04/16 12:02:49;;;;;;;9.70;5.45;;;;;;;19.32;43.64;103222.78;10380845;28;20058;-77
2022/04/16 12:07:49;;;;;;;6.47;5.88;;;;;;;19.80;42.41;103230.31;10380144;28;20030;-77
2022/04/16 12:12:52;;;;;;;7.47;5.35;;;;;;;19.87;43.16;103221.03;10381040;28;20034;-77
2022/04/16 12:17:57;;;;;;;9.73;5.70;;;;;;;19.62;42.15;103212.44;10380093;28;20034;-76
2022/04/16 12:22:59;;;;;;;11.32;6.00;;;;;;;19.52;42.55;103226.50;10380975;28;20046;-76
2022/04/16 12:28:00;;;;;;;5.22;4.80;;;;;;;19.54;42.16;103233.72;10378995;28;20469;-75
2022/04/16 12:33:04;;;;;;;5.22;4.72;;;;;;;19.68;41.43;103224.53;10382589;28;20082;-76
2022/04/16 12:38:04;;;;;;;6.18;5.57;;;;;;;19.39;41.02;103223.66;10362904;28;20446;-77
2022/04/16 12:43:05;;;;;;;7.85;5.50;;;;;;;19.61;40.58;103210.72;10378285;28;20041;-77
2022/04/16 12:48:06;;;;;;;5.75;5.13;;;;;;;19.77;40.86;103205.97;10377835;28;20473;-76
2022/04/16 12:53:06;;;;;;;6.55;5.93;;;;;;;20.16;40.56;103208.06;10378305;28;20048;-77
2022/04/16 12:58:06;;;;;;;4.13;3.72;;;;;;;19.70;39.72;103211.44;10360926;28;20038;-77
2022/04/16 13:03:07;;;;;;;5.43;4.47;;;;;;;19.72;40.74;103192.84;10376561;28;20034;-76
2022/04/16 13:08:08;;;;;;;5.50;4.95;;;;;;;19.44;40.37;103209.34;10377717;28;20038;-76
2022/04/16 13:13:08;;;;;;;5.25;4.72;;;;;;;19.34;40.22;103192.38;10361031;28;20377;-78
2022/04/16 13:18:08;;;;;;;5.45;4.53;;;;;;;18.84;41.10;103206.09;10377426;28;20034;-76
2022/04/16 13:23:09;;;;;;;4.53;4.10;;;;;;;18.80;42.11;103205.63;10378405;28;20042;-77
2022/04/16 13:28:09;;;;;;;5.68;4.22;;;;;;;18.81;42.52;103182.63;10376651;28;20406;-77
2022/04/16 13:33:10;;;;;;;4.32;3.95;;;;;;;19.20;40.45;103203.22;10359891;28;20137;-76
2022/04/16 13:38:10;;;;;;;4.70;4.25;;;;;;;18.83;40.71;103185.19;10377697;28;20037;-78
2022/04/16 13:43:11;;;;;;;8.75;6.20;;;;;;;18.69;42.36;103178.66;10376704;28;20092;-76
2022/04/16 13:48:11;;;;;;;7.43;6.13;;;;;;;19.06;41.07;103168.47;10377025;28;20477;-77
2022/04/16 13:53:12;;;;;;;6.88;6.03;;;;;;;18.96;42.27;103166.06;10359371;28;20053;-76
2022/04/16 13:58:13;;;;;;;8.32;5.75;;;;;;;18.82;42.80;103167.00;10375381;28;20497;-77
2022/04/16 14:03:13;;;;;;;5.90;5.43;;;;;;;18.62;41.08;103158.53;10287826;28;20062;-77
2022/04/16 14:08:14;;;;;;;12.57;5.85;;;;;;;18.44;42.28;103147.16;10375375;28;20117;-77
2022/04/16 14:13:15;;;;;;;6.65;5.88;;;;;;;18.63;41.95;103138.28;10375331;28;20517;-76
2022/04/16 14:18:16;;;;;;;6.72;5.22;;;;;;;18.26;41.34;103128.44;10375446;28;20026;-76
2022/04/16 14:23:16;;;;;;;8.95;5.82;;;;;;;18.11;42.10;103129.31;10375384;28;20469;-78
2022/04/16 14:28:17;;;;;;;6.38;4.85;;;;;;;17.84;38.76;103132.78;10375329;28;20045;-77
2022/04/16 14:33:17;;;;;;;7.03;4.43;;;;;;;17.80;39.71;103117.75;10376352;28;20046;-76
2022/04/16 14:38:20;;;;;;;7.03;6.00;;;;;;;17.71;42.19;103108.78;10376217;28;20085;-76
2022/04/16 14:43:21;;;;;;;7.78;4.60;;;;;;;17.87;41.28;103111.34;10375133;28;20045;-76
2022/04/16 14:48:22;;;;;;;6.25;5.72;;;;;;;17.79;40.49;103094.97;10359273;28;20033;-76
2022/04/16 14:53:23;;;;;;;4.90;4.45;;;;;;;17.57;41.99;103090.44;10375369;28;20034;-75
2022/04/16 14:58:23;;;;;;;6.13;5.53;;;;;;;17.71;43.19;103084.13;10374888;28;20038;-75
2022/04/16 15:03:24;;;;;;;4.88;4.45;;;;;;;17.58;42.23;103095.75;10360528;28;20124;-76
2022/04/16 15:08:24;;;;;;;5.97;5.05;;;;;;;16.81;42.92;103087.00;10382153;28;20092;-76
2022/04/16 15:13:24;;;;;;;8.77;4.85;;;;;;;16.19;45.63;103107.16;10381956;28;20042;-75
2022/04/16 15:18:27;;;;;;;5.53;4.75;;;;;;;16.08;45.60;103099.34;10382517;28;20092;-76
2022/04/16 15:23:27;;;;;;;5.97;4.53;;;;;;;16.02;45.40;103085.41;10365634;28;20124;-75
2022/04/16 15:28:28;;;;;;;5.53;4.07;;;;;;;15.85;46.05;103078.31;10364115;28;20492;-76
2022/04/16 15:33:28;;;;;;;6.25;4.22;;;;;;;15.70;46.60;103069.19;10381458;28;20041;-76
2022/04/16 15:38:29;;;;;;;6.05;5.07;;;;;;;15.57;46.13;103076.03;10381756;28;20120;-76
2022/04/16 15:43:30;;;;;;;5.30;4.00;;;;;;;15.48;45.50;103068.06;10363592;28;20034;-75
2022/04/16 15:48:30;;;;;;;4.88;4.35;;;;;;;15.39;43.23;103080.88;10364088;28;20041;-75
2022/04/16 15:53:32;;;;;;;5.78;3.97;;;;;;;15.28;43.52;103068.47;10379957;28;20044;-76
2022/04/16 15:58:32;;;;;;;4.32;3.67;;;;;;;15.24;44.18;103058.91;10383267;28;20026;-76
2022/04/16 16:03:33;;;;;;;5.32;4.13;;;;;;;15.29;44.92;103058.41;10380595;28;20477;-76
2022/04/16 16:08:34;;;;;;;4.32;2.88;;;;;;;15.18;41.58;103064.22;10362953;28;20092;-75
2022/04/16 16:13:34;;;;;;;4.43;3.92;;;;;;;15.09;42.94;103053.34;10361736;28;20462;-76
2022/04/16 16:18:34;;;;;;;3.83;3.40;;;;;;;15.09;43.84;103049.75;10381166;28;20037;-75
2022/04/16 16:23:39;;;;;;;3.17;2.88;;;;;;;15.16;41.98;103039.88;10379857;28;20049;-75
2022/04/16 16:28:39;;;;;;;10.55;3.58;;;;;;;15.09;42.09;103047.03;10380909;28;20185;-74
2022/04/16 16:33:40;;;;;;;4.05;3.13;;;;;;;14.97;41.48;103040.25;10361580;28;20037;-75
2022/04/16 16:38:40;;;;;;;3.63;3.33;;;;;;;14.88;40.99;103042.16;10363930;28;20137;-76
2022/04/16 16:43:40;;;;;;;4.15;2.67;;;;;;;14.83;40.82;103041.81;10380338;28;20030;-75
2022/04/16 16:48:41;;;;;;;4.40;3.00;;;;;;;14.83;41.64;103042.66;10378203;28;20026;-75
2022/04/16 16:53:41;;;;;;;5.53;4.53;;;;;;;14.83;40.12;103044.53;10379033;28;20450;-75
2022/04/16 16:58:41;;;;;;;4.18;3.78;;;;;;;14.80;40.20;103044.88;10378255;28;20038;-75
2022/04/16 17:09:01;;;;;;;3.22;2.97;;;;;;;14.65;37.71;103037.41;10378308;28;20073;-76
2022/04/16 17:19:20;;;;;;;4.93;3.42;;;;;;;14.49;37.95;103053.75;10363115;28;20120;-76
2022/04/16 17:24:21;;;;;;;7.03;3.00;;;;;;;14.37;37.88;103061.41;10378207;28;20038;-76
2022/04/16 17:29:22;;;;;;;5.43;3.72;;;;;;;14.24;37.47;103061.06;10375906;28;20057;-76
2022/04/16 17:34:23;;;;;;;4.65;4.18;;;;;;;14.15;37.69;103060.19;10378409;28;20037;-75
2022/04/16 17:39:23;;;;;;;4.63;4.22;;;;;;;14.11;39.53;103056.13;10377436;28;20551;-74
2022/04/16 17:44:24;;;;;;;5.75;4.07;;;;;;;13.91;40.70;103060.16;10358959;28;20041;-76
2022/04/16 17:49:25;;;;;;;5.90;4.93;;;;;;;13.84;42.93;103053.69;10376127;28;20069;-76
2022/04/16 17:54:31;;;;;;;6.75;4.32;;;;;;;13.72;42.54;103043.09;10376899;28;20061;-75
2022/04/16 17:59:31;;;;;;;5.97;5.03;;;;;;;13.61;43.90;103050.72;10359612;28;20458;-75
2022/04/16 18:04:32;;;;;;;10.70;5.18;;;;;;;13.39;45.56;103041.28;10358983;28;20033;-75
2022/04/16 18:09:32;;;;;;;8.07;5.22;;;;;;;13.25;45.09;103048.19;10376288;28;20045;-75
2022/04/16 18:14:33;;;;;;;10.05;4.57;;;;;;;13.17;45.10;103056.28;10376078;28;20113;-75
2022/04/16 18:19:34;;;;;;;4.00;3.70;;;;;;;13.04;44.80;103056.72;10376068;28;20046;-76
2022/04/16 18:24:37;;;;;;;4.60;4.18;;;;;;;12.89;45.10;103070.06;10357678;28;20049;-75
2022/04/16 18:29:38;;;;;;;4.00;3.72;;;;;;;12.88;45.30;103078.38;10357752;28;20131;-76
2022/04/16 18:34:39;;;;;;;4.88;4.00;;;;;;;12.68;45.91;103085.88;10375299;28;20048;-75
2022/04/16 18:39:40;;;;;;;5.15;3.90;;;;;;;12.60;46.00;103089.38;10358278;28;20121;-76
2022/04/16 18:44:41;;;;;;;6.55;5.03;;;;;;;12.46;46.87;103092.66;10372979;28;20038;-76
2022/04/16 18:49:42;;;;;;;9.00;4.40;;;;;;;12.28;47.61;103098.09;10375947;28;20161;-76
2022/04/16 18:54:44;;;;;;;5.88;4.18;;;;;;;12.23;48.04;103100.44;10356733;28;20379;-75
2022/04/16 18:59:45;;;;;;;5.97;3.95;;;;;;;12.04;48.26;103106.84;10341038;28;20069;-75
2022/04/16 19:10:06;;;;;;;5.72;4.75;;;;;;;11.99;46.98;103118.16;10374677;28;20393;-76
2022/04/16 19:15:07;;;;;;;5.60;4.65;;;;;;;11.90;46.33;103112.78;10373834;28;20037;-75
2022/04/16 19:20:09;;;;;;;8.02;4.88;;;;;;;11.82;46.51;103114.38;10356698;28;20034;-76
2022/04/16 19:25:09;;;;;;;4.47;4.15;;;;;;;11.71;46.84;103120.03;10374264;28;20030;-75
2022/04/16 19:30:10;;;;;;;17.15;5.28;;;;;;;11.52;46.94;103130.94;10340464;28;20077;-75
2022/04/16 19:35:11;;;;;;;4.88;4.47;;;;;;;11.31;46.04;103121.16;10374393;28;20466;-75
2022/04/16 19:40:12;;;;;;;3.70;3.40;;;;;;;11.38;45.21;103121.44;10374013;28;20407;-75
2022/04/16 19:45:12;;;;;;;3.40;3.10;;;;;;;11.40;44.35;103128.44;10375765;28;20030;-75
2022/04/16 19:50:13;;;;;;;3.50;3.20;;;;;;;11.35;44.30;103117.16;10376977;28;20385;-75
2022/04/16 19:55:13;;;;;;;3.70;2.80;;;;;;;11.24;44.28;103128.19;10380946;28;20092;-75
2022/04/16 20:00:14;;;;;;;2.70;2.50;;;;;;;11.22;43.99;103126.63;10363172;28;20115;-75
2022/04/16 20:05:15;;;;;;;2.45;2.25;;;;;;;11.12;44.57;103115.81;10381157;28;20474;-76
2022/04/16 20:15:35;;;;;;;3.67;3.30;;;;;;;10.88;45.57;103125.28;10379580;28;20034;-76
2022/04/16 20:20:35;;;;;;;3.85;2.67;;;;;;;10.78;45.48;103113.59;10380219;28;20125;-75
2022/04/16 20:25:36;;;;;;;2.50;2.30;;;;;;;10.69;45.89;103111.78;10362132;28;20034;-75
2022/04/16 20:30:37;;;;;;;5.75;2.40;;;;;;;10.61;46.63;103109.75;10362287;28;20057;-75
2022/04/16 20:35:38;;;;;;;2.97;2.67;;;;;;;10.52;46.90;103107.06;10379835;28;20451;-75
2022/04/16 20:45:59;;;;;;;2.95;2.65;;;;;;;10.36;48.08;103091.38;10378829;28;20116;-75
2022/04/16 20:56:19;;;;;;;3.47;2.92;;;;;;;10.25;48.17;103086.94;10379635;28;20037;-75
2022/04/16 21:01:19;;;;;;;3.38;3.08;;;;;;;10.11;48.77;103077.34;10379119;28;20030;-76
2022/04/16 21:06:19;;;;;;;4.55;3.15;;;;;;;10.00;49.02;103070.22;10344779;28;20026;-76
2022/04/16 21:11:20;;;;;;;6.72;3.17;;;;;;;9.87;49.76;103060.66;10378529;28;20397;-74
2022/04/16 21:16:20;;;;;;;4.65;3.63;;;;;;;9.78;49.97;103059.66;10362776;28;20053;-76
2022/04/16 21:21:21;;;;;;;3.28;2.97;;;;;;;9.63;50.65;103050.22;10362802;28;20038;-76
2022/04/16 21:26:23;;;;;;;3.20;2.90;;;;;;;9.49;50.86;103043.34;10362810;28;20037;-75
2022/04/16 21:31:23;;;;;;;5.35;3.13;;;;;;;9.44;51.42;103035.63;10376774;28;20405;-75
2022/04/16 21:36:23;;;;;;;5.10;3.58;;;;;;;9.36;52.30;103035.47;10377247;28;20044;-76
2022/04/16 21:41:25;;;;;;;10.95;4.63;;;;;;;9.23;52.91;103035.72;10377839;28;20373;-76
2022/04/16 21:46:26;;;;;;;4.88;4.10;;;;;;;9.22;52.80;103030.44;10376785;28;20038;-75
2022/04/16 21:51:26;;;;;;;5.30;4.25;;;;;;;9.19;52.83;103036.09;10376845;28;20470;-75
2022/04/16 21:56:27;;;;;;;7.03;4.63;;;;;;;9.16;53.31;103047.22;10378873;28;20095;-74
2022/04/16 22:01:33;;;;;;;4.47;4.07;;;;;;;9.14;53.46;103049.19;10360279;28;20037;-76
2022/04/16 22:06:34;;;;;;;;;;;;;;;9.07;53.83;103044.31;10376902;28;20462;-76
2022/04/16 22:11:34;;;;;;;3.97;3.67;;;;;;;8.93;54.61;103050.06;10376810;28;20067;-75
2022/04/16 22:16:35;;;;;;;6.45;4.13;;;;;;;8.81;55.40;103051.16;10359038;28;20030;-76
2022/04/16 22:21:35;;;;;;;5.05;4.10;;;;;;;8.82;55.19;103042.91;10375037;28;20034;-76
2022/04/16 22:26:36;;;;;;;2.90;2.70;;;;;;;8.75;55.76;103049.00;10375848;28;20030;-76
2022/04/16 22:31:36;;;;;;;6.70;3.92;;;;;;;8.70;55.78;103046.69;10358123;28;20506;-76
2022/04/16 22:40:59;;;;;;;4.63;3.55;;;;;;;8.67;55.93;103049.63;10375058;28;20401;-76
2022/04/16 22:41:57;;;;;;;5.13;4.22;;;;;;;8.64;55.49;103041.78;10359965;28;20462;-76
2022/04/16 22:46:57;;;;;;;4.03;3.70;;;;;;;8.58;55.97;103048.59;10358495;28;20030;-75
2022/04/16 22:51:57;;;;;;;3.97;3.67;;;;;;;8.53;56.17;103042.72;10375007;28;20037;-75
2022/04/16 22:56:58;;;;;;;4.15;3.83;;;;;;;8.52;56.68;103040.16;10374103;28;20096;-75
2022/04/16 23:01:58;;;;;;;4.47;4.07;;;;;;;8.44;56.82;103040.81;10372865;28;20030;-75
2022/04/16 23:06:59;;;;;;;3.40;3.10;;;;;;;8.39;57.26;103043.03;10374435;28;20033;-76
2022/04/16 23:11:59;;;;;;;5.15;2.92;;;;;;;8.28;57.96;103043.06;10373766;28;20030;-76
2022/04/16 23:17:00;;;;;;;4.88;3.78;;;;;;;8.26;58.01;103036.94;10374496;28;20045;-76
2022/04/16 23:22:01;;;;;;;4.85;4.43;;;;;;;8.20;58.48;103029.34;10356352;28;20038;-76
2022/04/16 23:27:02;;;;;;;5.75;4.47;;;;;;;8.15;58.42;103036.00;10380553;28;20030;-76
2022/04/16 23:32:03;;;;;;;4.10;3.72;;;;;;;8.05;59.40;103040.47;10382367;28;20066;-76
2022/04/16 23:37:03;;;;;;;4.10;3.45;;;;;;;8.02;59.56;103035.34;10381766;28;20045;-76
2022/04/16 23:42:04;;;;;;;4.13;3.63;;;;;;;7.90;60.49;103030.97;10363633;28;20393;-76
2022/04/16 23:47:04;;;;;;;4.10;3.70;;;;;;;7.85;61.02;103028.66;10348823;28;20061;-76